createdAt,value
2023-03-26T00:02:31.010Z,99649.03
2023-03-26T00:05:19.967Z,99626.59
2023-03-26T00:08:08.906Z,99651.50
2023-03-26T00:11:00.594Z,99646.97
2023-03-26T00:13:49.842Z,99650.69
2023-03-26T00:16:38.309Z,99655.00
2023-03-26T00:19:27.888Z,99650.47
2023-03-26T00:22:17.051Z,99637.53
2023-03-26T00:25:07.266Z,99649.66
2023-03-26T00:27:57.270Z,99634.03
2023-03-26T00:30:45.930Z,99639.75
2023-03-26T00:33:38.136Z,99638.75
2023-03-26T00:36:27.174Z,99634.63
2023-03-26T00:39:17.682Z,99629.28
2023-03-26T00:42:08.159Z,99633.81
2023-03-26T00:44:58.456Z,99625.78
2023-03-26T00:47:47.046Z,99608.31
2023-03-26T00:50:35.592Z,99619.81
2023-03-26T00:53:24.651Z,99571.50
2023-03-26T00:56:13.914Z,99612.59
2023-03-26T00:59:02.412Z,99608.28
2023-03-26T01:01:55.034Z,99610.94
2023-03-26T01:04:45.660Z,99601.72
2023-03-26T01:07:35.216Z,99600.88
2023-03-26T01:10:23.761Z,99588.94
2023-03-26T01:13:12.309Z,99587.06
2023-03-26T01:16:02.027Z,99562.63
2023-03-26T01:18:52.777Z,99572.69
2023-03-26T01:21:41.515Z,99573.69
2023-03-26T01:24:31.350Z,99565.69
2023-03-26T01:27:27.185Z,99542.25
2023-03-26T01:30:23.589Z,99559.94
2023-03-26T01:33:16.175Z,99559.53
2023-03-26T01:36:08.655Z,99558.28
2023-03-26T01:39:00.891Z,99543.69
2023-03-26T01:41:52.634Z,99537.09
2023-03-26T01:44:46.415Z,99535.25
2023-03-26T01:47:37.055Z,99481.59
2023-03-26T01:50:25.669Z,99519.63
2023-03-26T01:53:14.804Z,99522.31
2023-03-26T01:56:12.710Z,99510.78
2023-03-26T01:59:10.353Z,99492.47
2023-03-26T02:02:04.676Z,99492.88
2023-03-26T02:04:58.971Z,99489.38
2023-03-26T02:07:51.054Z,99483.81
2023-03-26T02:10:42.604Z,99478.88
2023-03-26T02:13:31.228Z,99475.38
2023-03-26T02:16:21.783Z,99477.25
2023-03-26T02:19:15.835Z,99469.81
2023-03-26T02:22:04.798Z,99466.75
2023-03-26T02:24:53.289Z,99461.19
2023-03-26T02:27:42.009Z,99467.59
2023-03-26T02:30:30.551Z,99459.56
2023-03-26T02:33:21.584Z,99433.88
2023-03-26T02:36:13.862Z,99444.97
2023-03-26T02:39:02.558Z,99443.97
2023-03-26T02:41:51.330Z,99450.31
2023-03-26T02:44:40.266Z,99441.09
2023-03-26T02:47:28.851Z,99435.16
2023-03-26T02:50:19.287Z,99440.06
2023-03-26T02:53:08.033Z,99431.88
2023-03-26T02:55:56.681Z,99420.75
2023-03-26T02:58:46.720Z,99419.75
2023-03-26T03:01:36.944Z,99395.91
2023-03-26T03:04:25.748Z,99416.28
2023-03-26T03:07:15.917Z,99409.66
2023-03-26T03:10:04.669Z,99405.16
2023-03-26T03:12:53.134Z,99396.34
2023-03-26T03:15:41.632Z,99396.53
2023-03-26T03:18:30.132Z,99378.66
2023-03-26T03:21:18.607Z,99387.31
2023-03-26T03:24:09.226Z,99373.50
2023-03-26T03:26:58.006Z,99365.47
2023-03-26T03:29:46.500Z,99369.00
2023-03-26T03:32:35.032Z,99354.41
2023-03-26T03:35:23.550Z,99366.28
2023-03-26T03:38:12.141Z,99364.88
2023-03-26T03:41:01.965Z,99365.91
2023-03-26T03:43:51.785Z,99362.81
2023-03-26T03:46:40.308Z,99356.25
2023-03-26T03:49:29.730Z,99350.50
2023-03-26T03:52:18.373Z,99342.06
2023-03-26T03:55:07.474Z,99329.56
2023-03-26T03:58:00.215Z,99331.81
2023-03-26T04:00:49.715Z,99321.31
2023-03-26T04:03:39.300Z,99309.38
2023-03-26T04:06:30.141Z,99300.38
2023-03-26T04:09:18.655Z,99300.53
2023-03-26T04:12:07.544Z,99306.13
2023-03-26T04:14:57.487Z,99266.72
2023-03-26T04:17:46.023Z,99288.25
2023-03-26T04:20:35.255Z,99281.88
2023-03-26T04:23:24.368Z,99270.81
2023-03-26T04:26:16.143Z,99273.28
2023-03-26T04:29:06.093Z,99246.97
2023-03-26T04:31:58.781Z,99257.22
2023-03-26T04:34:48.044Z,99249.00
2023-03-26T04:37:39.823Z,99239.31
2023-03-26T04:40:30.475Z,99245.91
2023-03-26T04:43:19.031Z,99245.31
2023-03-26T04:46:08.249Z,99242.03
2023-03-26T04:48:58.062Z,99243.06
2023-03-26T04:51:47.452Z,99208.38
2023-03-26T04:54:35.949Z,99240.19
2023-03-26T04:57:27.056Z,99239.34
2023-03-26T05:00:19.618Z,99234.19
2023-03-26T05:03:11.564Z,99228.03
2023-03-26T05:06:01.931Z,99217.56
2023-03-26T05:08:50.409Z,99223.72
2023-03-26T05:11:39.030Z,99204.34
2023-03-26T05:14:27.493Z,99198.59
2023-03-26T05:17:18.876Z,99186.91
2023-03-26T05:20:08.875Z,99173.50
2023-03-26T05:22:58.693Z,99124.09
2023-03-26T05:25:47.211Z,99177.44
2023-03-26T05:28:36.060Z,99130.28
2023-03-26T05:31:27.001Z,99168.78
2023-03-26T05:34:15.571Z,99146.22
2023-03-26T05:37:04.957Z,99144.59
2023-03-26T05:39:55.979Z,99142.28
2023-03-26T05:42:45.372Z,99122.78
2023-03-26T05:45:33.942Z,99106.41
2023-03-26T05:48:23.164Z,99113.16
2023-03-26T05:51:12.332Z,99109.78
2023-03-26T05:54:00.944Z,99089.69
2023-03-26T05:56:50.779Z,99093.69
2023-03-26T05:59:39.194Z,99079.97
2023-03-26T06:02:29.435Z,98954.44
2023-03-26T06:05:18.024Z,99081.34
2023-03-26T06:08:06.747Z,99077.81
2023-03-26T06:10:59.731Z,99079.81
2023-03-26T06:13:49.544Z,99070.34
2023-03-26T06:16:38.006Z,99055.59
2023-03-26T06:19:26.625Z,99075.69
2023-03-26T06:22:15.599Z,99062.91
2023-03-26T06:25:04.240Z,99066.00
2023-03-26T06:27:52.720Z,99056.44
2023-03-26T06:30:42.868Z,99058.72
2023-03-26T06:33:31.477Z,99002.25
2023-03-26T06:36:19.990Z,99048.56
2023-03-26T06:39:08.713Z,99023.72
2023-03-26T06:41:57.159Z,99029.78
2023-03-26T06:44:45.637Z,99031.72
2023-03-26T06:47:35.457Z,99053.13
2023-03-26T06:50:23.962Z,99018.78
2023-03-26T06:53:12.469Z,99052.94
2023-03-26T06:56:01.105Z,99043.41
2023-03-26T06:58:49.573Z,99035.78
2023-03-26T07:01:38.109Z,99032.03
2023-03-26T07:04:28.143Z,99026.59
2023-03-26T07:07:16.641Z,99033.97
2023-03-26T07:10:05.660Z,99009.88
2023-03-26T07:12:54.498Z,99014.56
2023-03-26T07:15:43.054Z,99016.44
2023-03-26T07:18:31.560Z,99005.66
2023-03-26T07:21:22.154Z,99015.22
2023-03-26T07:24:12.236Z,98953.69
2023-03-26T07:27:04.728Z,99023.44
2023-03-26T07:29:56.814Z,99010.50
2023-03-26T07:32:51.617Z,99002.31
2023-03-26T07:35:43.003Z,98996.69
2023-03-26T07:38:43.413Z,98985.81
2023-03-26T07:41:36.978Z,98981.00
2023-03-26T07:44:42.704Z,98965.19
2023-03-26T07:47:34.366Z,98920.38
2023-03-26T07:50:24.912Z,98934.03
2023-03-26T07:53:13.967Z,98939.47
2023-03-26T07:56:07.536Z,98926.06
2023-03-26T07:59:04.302Z,98936.78
2023-03-26T08:02:01.329Z,98932.34
2023-03-26T08:04:59.703Z,98941.50
2023-03-26T08:07:57.620Z,98875.97
2023-03-26T08:10:58.572Z,98918.66
2023-03-26T08:13:57.428Z,98930.03
2023-03-26T08:16:52.198Z,98944.69
2023-03-26T08:19:59.133Z,98943.72
2023-03-26T08:22:51.922Z,98914.69
2023-03-26T08:25:51.043Z,98939.78
2023-03-26T08:28:54.129Z,98948.38
2023-03-26T08:31:44.594Z,98932.56
2023-03-26T08:34:33.477Z,98948.06
2023-03-26T08:37:22.420Z,98928.16
2023-03-26T08:40:12.010Z,98939.91
2023-03-26T08:43:22.568Z,98923.78
2023-03-26T08:46:34.263Z,98914.19
2023-03-26T08:49:58.215Z,98916.88
2023-03-26T08:53:21.847Z,98921.31
2023-03-26T08:56:13.820Z,98926.97
2023-03-26T08:59:33.525Z,98899.75
2023-03-26T09:02:36.097Z,98902.53
2023-03-26T09:06:08.116Z,98919.00
2023-03-26T09:09:34.808Z,98913.47
2023-03-26T09:12:52.070Z,98901.59
2023-03-26T09:16:20.612Z,98906.19
2023-03-26T09:19:47.325Z,98905.06
2023-03-26T09:23:15.636Z,98909.50
2023-03-26T09:26:24.787Z,98899.84
2023-03-26T09:29:42.603Z,98896.63
2023-03-26T09:32:48.426Z,98887.88
2023-03-26T09:35:52.799Z,98900.09
2023-03-26T09:38:44.582Z,98891.09
2023-03-26T09:41:42.403Z,98891.94
2023-03-26T09:44:54.113Z,98867.28
2023-03-26T09:48:23.847Z,98880.94
2023-03-26T09:51:46.821Z,98879.56
2023-03-26T09:55:11.652Z,98861.97
2023-03-26T09:58:12.790Z,98871.69
2023-03-26T10:01:11.004Z,98865.16
2023-03-26T10:04:08.321Z,98859.13
2023-03-26T10:07:01.470Z,98865.88
2023-03-26T10:09:54.534Z,98854.13
2023-03-26T10:12:45.269Z,98863.81
2023-03-26T10:15:37.207Z,98867.56
2023-03-26T10:18:33.904Z,98862.09
2023-03-26T10:21:30.979Z,98859.66
2023-03-26T10:24:33.263Z,98868.84
2023-03-26T10:27:32.350Z,98839.06
2023-03-26T10:30:36.334Z,98872.34
2023-03-26T10:33:32.420Z,98874.25
2023-03-26T10:36:31.959Z,98861.47
2023-03-26T10:39:36.887Z,98884.72
2023-03-26T10:42:50.765Z,98868.41
2023-03-26T10:45:51.519Z,98861.66
2023-03-26T10:48:56.934Z,98883.38
2023-03-26T10:51:51.195Z,98869.84
2023-03-26T10:54:51.028Z,98788.91
2023-03-26T10:57:42.718Z,98877.88
2023-03-26T11:00:31.605Z,98865.69
2023-03-26T11:03:38.609Z,98855.06
2023-03-26T11:06:33.523Z,98879.84
2023-03-26T11:09:32.482Z,98872.28
2023-03-26T11:12:28.358Z,98878.69
2023-03-26T11:15:23.453Z,98882.25
2023-03-26T11:18:16.868Z,98887.09
2023-03-26T11:21:18.788Z,98783.19
2023-03-26T11:24:28.490Z,98883.81
2023-03-26T11:27:25.881Z,98873.63
2023-03-26T11:30:23.208Z,98894.63
2023-03-26T11:33:16.770Z,98867.13
2023-03-26T11:36:08.488Z,98892.38
2023-03-26T11:38:58.839Z,98892.88
2023-03-26T11:41:47.854Z,98898.22
2023-03-26T11:44:39.802Z,98894.59
2023-03-26T11:47:32.649Z,98894.41
2023-03-26T11:50:23.374Z,98897.31
2023-03-26T11:53:13.623Z,98880.72
2023-03-26T11:56:04.795Z,98880.53
2023-03-26T11:58:57.007Z,98881.34
2023-03-26T12:01:51.290Z,98879.56
2023-03-26T12:04:41.747Z,98889.03
2023-03-26T12:07:32.880Z,98889.09
2023-03-26T12:10:29.538Z,98898.31
2023-03-26T12:13:29.501Z,98892.38
2023-03-26T12:16:20.796Z,98874.00
2023-03-26T12:19:20.899Z,98876.44
2023-03-26T12:22:31.100Z,98869.44
2023-03-26T12:25:21.440Z,98872.91
2023-03-26T12:28:19.054Z,98866.06
2023-03-26T12:31:09.403Z,98849.03
2023-03-26T12:34:08.189Z,98836.06
2023-03-26T12:37:00.972Z,98845.31
2023-03-26T12:40:09.450Z,98850.75
2023-03-26T12:44:53.234Z,98846.41
2023-03-26T12:47:56.562Z,98837.22
2023-03-26T12:49:32.116Z,98843.97
2023-03-26T12:52:33.257Z,98833.66
2023-03-26T12:55:42.797Z,98829.81
2023-03-26T12:58:51.215Z,98829.28
2023-03-26T13:01:50.375Z,98825.03
2023-03-26T13:05:02.289Z,98807.22
2023-03-26T13:08:01.453Z,98832.88
2023-03-26T13:10:51.932Z,98820.16
2023-03-26T13:14:10.603Z,98785.81
2023-03-26T13:17:03.395Z,98812.31
2023-03-26T13:19:58.004Z,98812.31
2023-03-26T13:22:51.964Z,98814.22
2023-03-26T13:25:46.349Z,98808.50
2023-03-26T13:28:42.127Z,98810.44
2023-03-26T13:31:35.412Z,98793.16
2023-03-26T13:34:28.833Z,98805.31
2023-03-26T13:37:20.557Z,98815.84
2023-03-26T13:40:22.316Z,98810.91
2023-03-26T13:43:26.284Z,98799.50
2023-03-26T13:46:22.381Z,98803.78
2023-03-26T13:49:15.428Z,98803.47
2023-03-26T13:52:06.786Z,98822.13
2023-03-26T13:55:08.570Z,98836.88
2023-03-26T13:58:01.910Z,98831.09
2023-03-26T14:00:56.225Z,98832.59
2023-03-26T14:03:52.735Z,98855.41
2023-03-26T14:06:46.604Z,98752.94
2023-03-26T14:09:40.826Z,98859.25
2023-03-26T14:12:51.251Z,98881.69
2023-03-26T14:15:43.688Z,98849.03
2023-03-26T14:18:38.769Z,98913.03
2023-03-26T14:21:42.264Z,98921.00
2023-03-26T14:24:45.580Z,98907.34
2023-03-26T14:27:47.463Z,98928.97
2023-03-26T14:30:59.993Z,98937.75
2023-03-26T14:34:07.102Z,98946.78
2023-03-26T14:37:32.908Z,98941.53
2023-03-26T14:40:37.441Z,98951.00
2023-03-26T14:43:59.090Z,98940.16
2023-03-26T14:47:02.689Z,98911.88
2023-03-26T14:50:22.210Z,98926.56
2023-03-26T14:53:18.764Z,98922.59
2023-03-26T14:56:44.450Z,98904.50
2023-03-26T15:00:12.303Z,98909.13
2023-03-26T15:03:48.896Z,98912.84
2023-03-26T15:07:16.190Z,98910.00
2023-03-26T15:10:43.900Z,98909.84
2023-03-26T15:13:54.687Z,98908.66
2023-03-26T15:17:20.198Z,98890.84
2023-03-26T15:20:45.150Z,98885.78
2023-03-26T15:24:08.024Z,98891.50
2023-03-26T15:27:29.214Z,98885.84
2023-03-26T15:31:11.465Z,98888.22
2023-03-26T15:34:33.626Z,98893.59
2023-03-26T15:37:49.922Z,98886.59
2023-03-26T15:40:46.618Z,98891.88
2023-03-26T15:44:23.924Z,98892.34
2023-03-26T15:47:49.743Z,98893.00
2023-03-26T15:50:49.326Z,98877.75
2023-03-26T15:53:41.195Z,98882.09
2023-03-26T15:56:53.024Z,98880.34
2023-03-26T15:59:44.204Z,98880.88
2023-03-26T16:02:41.577Z,98882.31
2023-03-26T16:05:37.900Z,98880.88
2023-03-26T16:08:30.656Z,98882.38
2023-03-26T16:11:46.412Z,98889.22
2023-03-26T16:14:44.534Z,98902.72
2023-03-26T16:18:22.561Z,98908.38
2023-03-26T16:21:53.817Z,98917.97
2023-03-26T16:24:47.610Z,98827.97
2023-03-26T16:27:36.910Z,98924.97
2023-03-26T16:30:31.484Z,98930.25
2023-03-26T16:33:21.685Z,98940.44
2023-03-26T16:36:30.977Z,98939.22
2023-03-26T16:39:24.940Z,98944.00
2023-03-26T16:42:30.180Z,98929.63
2023-03-26T16:45:24.196Z,98941.56
2023-03-26T16:48:24.091Z,98942.84
2023-03-26T16:51:17.145Z,98877.28
2023-03-26T16:54:13.311Z,98939.63
2023-03-26T16:57:06.689Z,98938.66
2023-03-26T17:00:36.880Z,98947.97
2023-03-26T17:03:37.570Z,98947.25
2023-03-26T17:07:08.607Z,98944.81
2023-03-26T17:10:04.436Z,98938.50
2023-03-26T17:12:57.952Z,98936.72
2023-03-26T17:15:53.082Z,98941.16
2023-03-26T17:18:50.736Z,98930.09
2023-03-26T17:21:49.185Z,98941.75
2023-03-26T17:24:43.988Z,98949.53
2023-03-26T17:27:38.572Z,98950.38
2023-03-26T17:30:49.671Z,98938.34
2023-03-26T17:33:39.632Z,98943.91
2023-03-26T17:36:41.629Z,98934.25
2023-03-26T17:40:12.214Z,98937.38
2023-03-26T17:43:06.268Z,98898.16
2023-03-26T17:46:03.124Z,98932.03
2023-03-26T17:48:58.541Z,98925.19
2023-03-26T17:51:52.283Z,98905.44
2023-03-26T17:54:45.264Z,98941.38
2023-03-26T17:57:41.887Z,98942.78
2023-03-26T18:00:32.859Z,98953.34
2023-03-26T18:03:24.336Z,98934.34
2023-03-26T18:06:17.320Z,98946.66
2023-03-26T18:09:13.735Z,98941.75
2023-03-26T18:12:20.925Z,98939.59
2023-03-26T18:15:29.832Z,98944.81
2023-03-26T18:18:21.479Z,98949.13
2023-03-26T18:21:14.461Z,98948.94
2023-03-26T18:24:03.935Z,98952.94
2023-03-26T18:26:56.447Z,98952.94
2023-03-26T18:29:45.869Z,98953.78
2023-03-26T18:32:34.496Z,98955.50
2023-03-26T18:35:24.142Z,98951.75
2023-03-26T18:38:16.711Z,98954.53
2023-03-26T18:41:06.476Z,98960.84
2023-03-26T18:43:57.493Z,98951.50
2023-03-26T18:46:46.513Z,98959.31
2023-03-26T18:49:35.218Z,98954.66
2023-03-26T18:52:23.871Z,98960.56
2023-03-26T18:55:14.198Z,98961.00
2023-03-26T18:58:12.357Z,98958.63
2023-03-26T19:01:04.875Z,98901.31
2023-03-26T19:03:53.845Z,98955.63
2023-03-26T19:06:43.268Z,98949.72
2023-03-26T19:09:32.714Z,98946.69
2023-03-26T19:12:23.328Z,98948.97
2023-03-26T19:15:14.139Z,98930.16
2023-03-26T19:18:07.409Z,98941.03
2023-03-26T19:20:59.164Z,98937.09
2023-03-26T19:23:48.498Z,98939.19
2023-03-26T19:26:37.882Z,98934.84
2023-03-26T19:29:28.772Z,98932.59
2023-03-26T19:32:19.083Z,98932.59
2023-03-26T19:35:20.998Z,98921.72
2023-03-26T19:38:38.851Z,98917.19
2023-03-26T19:41:31.891Z,98914.53
2023-03-26T19:44:22.223Z,98902.00
2023-03-26T19:47:17.960Z,98904.47
2023-03-26T19:50:23.287Z,98902.81
2023-03-26T19:53:22.454Z,98903.41
2023-03-26T19:56:15.101Z,98896.03
2023-03-26T19:59:03.825Z,98894.34
2023-03-26T20:01:52.310Z,98894.56
2023-03-26T20:04:40.868Z,98880.03
2023-03-26T20:07:35.673Z,98891.16
2023-03-26T20:10:26.282Z,98895.75
2023-03-26T20:13:16.312Z,98891.03
2023-03-26T20:16:12.399Z,98891.25
2023-03-26T20:19:04.453Z,98895.31
2023-03-26T20:21:53.698Z,98891.78
2023-03-26T20:24:42.528Z,98899.63
2023-03-26T20:27:32.383Z,98893.63
2023-03-26T20:30:33.755Z,98895.28
2023-03-26T20:33:27.093Z,98901.59
2023-03-26T20:36:34.257Z,98903.16
2023-03-26T20:39:24.003Z,98895.63
2023-03-26T20:42:15.465Z,98899.34
2023-03-26T20:45:14.571Z,98906.53
2023-03-26T20:48:03.645Z,98896.72
2023-03-26T20:50:52.180Z,98905.56
2023-03-26T20:53:41.589Z,98906.28
2023-03-26T20:56:30.129Z,98910.81
2023-03-26T20:59:21.859Z,98908.56
2023-03-26T21:02:13.170Z,98914.31
2023-03-26T21:05:02.227Z,98923.16
2023-03-26T21:07:51.898Z,98923.19
2023-03-26T21:10:41.202Z,98936.97
2023-03-26T21:13:37.273Z,98931.84
2023-03-26T21:16:26.716Z,98943.94
2023-03-26T21:19:17.309Z,98941.13
2023-03-26T21:22:13.792Z,98948.63
2023-03-26T21:25:06.472Z,98945.97
2023-03-26T21:28:05.955Z,98948.28
2023-03-26T21:30:55.917Z,98958.78
2023-03-26T21:33:45.109Z,98940.91
2023-03-26T21:36:36.865Z,98956.88
2023-03-26T21:39:26.011Z,98954.03
2023-03-26T21:42:15.234Z,98956.09
2023-03-26T21:45:04.626Z,98952.63
2023-03-26T21:47:53.697Z,98965.78
2023-03-26T21:50:42.825Z,98963.91
2023-03-26T21:53:33.941Z,98971.31
2023-03-26T21:56:33.565Z,98958.41
2023-03-26T21:59:28.395Z,98968.47
2023-03-26T22:02:21.384Z,98966.78
2023-03-26T22:05:14.629Z,98982.34
2023-03-26T22:08:05.193Z,98974.00
2023-03-26T22:10:55.253Z,98980.47
2023-03-26T22:13:44.143Z,98966.44
2023-03-26T22:16:33.726Z,98959.03
2023-03-26T22:19:22.265Z,98968.06
2023-03-26T22:22:12.512Z,99004.06
2023-03-26T22:25:01.181Z,99002.03
2023-03-26T22:27:52.029Z,99005.81
2023-03-26T22:30:40.512Z,99017.50
2023-03-26T22:33:28.948Z,99012.56
2023-03-26T22:36:23.269Z,99026.28
2023-03-26T22:39:12.899Z,98985.81
2023-03-26T22:42:03.699Z,99029.22
2023-03-26T22:44:53.556Z,99043.75
2023-03-26T22:47:42.198Z,99053.88
2023-03-26T22:50:31.217Z,99057.78
2023-03-26T22:53:19.770Z,99057.44
2023-03-26T22:56:09.521Z,99074.06
2023-03-26T22:58:58.223Z,99075.69
2023-03-26T23:01:48.300Z,99058.53
2023-03-26T23:04:38.665Z,99097.88
2023-03-26T23:07:27.179Z,99102.78
2023-03-26T23:10:15.664Z,99116.56
2023-03-26T23:13:04.160Z,99117.00
2023-03-26T23:15:54.378Z,99124.41
2023-03-26T23:18:44.829Z,99133.84
2023-03-26T23:21:33.288Z,99118.72
2023-03-26T23:24:21.775Z,99137.56
2023-03-26T23:27:10.709Z,99147.19
2023-03-26T23:29:59.210Z,99152.53
2023-03-26T23:32:47.911Z,99162.41
2023-03-26T23:35:37.782Z,99161.03
2023-03-26T23:38:27.939Z,99181.94
2023-03-26T23:41:32.186Z,99195.28
2023-03-26T23:44:20.724Z,99195.47
2023-03-26T23:47:10.266Z,99201.81
2023-03-26T23:49:58.807Z,99216.63
2023-03-26T23:52:48.612Z,99219.53
2023-03-26T23:55:37.908Z,99221.56
2023-03-26T23:58:30.057Z,99232.25
